Pauma (217, PY1) Station Data

Red Flag Warning: No
Fire Weather Zone: 250
SDGE Region: North East
Lat/Lon: 33.312/-117.003

Observations

Time Wind Speed/Gust Temp(F) RH Fuel Moist Fuel Temp(F) Dewpt(F) Tmax(F) Tmin(F) Accum Precip 10-min Precip SL Press(mb)
3/29 8:00am 110 0 G 2 48° 76% - - 41° 48.9° 37.2° - - -
3/29 7:50am 0 0 G 0 45° 84% - - 41° 47° 37.2° - - -
3/29 7:40am 152 0 G 2 42° 90% - - 40° 46.4° 37.2° - - -
3/29 7:30am 209 1 G 3 40° 92% - - 38° 46.4° 37.2° - - -
3/29 7:20am 44 0 G 3 38° 93% - - 36° 46.4° 37.2° - - -
3/29 7:10am 228 2 G 1 38° 93% - - 36° 46.4° 37.2° - - -
3/29 7:00am 155 2 G 5 39° 93% - - 37° 46.4° 37.2° - - -
3/29 6:50am 97 1 G 4 39° 94% - - 37° 46.4° 37.2° - - -
3/29 6:40am 117 1 G 3 39° 94% - - 37° 46.4° 37.2° - - -
3/29 6:30am 37 1 G 3 38° 93% - - 36° 46.4° 37.2° - - -
3/29 6:20am 291 1 G 3 39° 93% - - 37° 46.4° 38° - - -
3/29 6:10am 115 1 G 2 40° 94% - - 38° 46.4° 38° - - -
3/29 6:00am 52 1 G 3 39° 93% - - 37° 46.4° 38° - - -
3/29 5:50am 221 1 G 3 39° 93% - - 37° 46.4° 38° - - -
3/29 5:40am 191 1 G 3 39° 93% - - 37° 46.4° 38.6° - - -
3/29 5:30am 68 1 G 4 39° 93% - - 37° 46.4° 38.7° - - -
3/29 5:20am 114 2 G 5 40° 93% - - 38° 46.4° 38.8° - - -
3/29 5:10am 169 1 G 3 40° 93% - - 38° 46.4° 38.9° - - -
3/29 5:00am 149 1 G 2 40° 93% - - 38° 46.4° 39.2° - - -
3/29 4:50am 60 1 G 3 40° 93% - - 38° 46.4° 39.4° - - -
3/29 4:40am 143 1 G 3 40° 93% - - 38° 46.4° 39.4° - - -
3/29 4:30am 164 1 G 2 40° 93% - - 38° 46.4° 39.4° - - -
3/29 4:20am 254 1 G 3 40° 93% - - 38° 46.4° 39.5° - - -
3/29 4:10am 311 1 G 1 40° 91% - - 38° 46.4° 39.6° - - -
3/29 4:00am 215 2 G 4 41° 90% - - 39° 46.4° 39.8° - - -
3/29 3:50am 79 3 G 3 42° 91% - - 40° 46.4° 39.8° - - -
3/29 3:40am 90 2 G 5 42° 91% - - 39° 46.4° 39.8° - - -
3/29 3:30am 149 1 G 4 41° 90% - - 38° 46.4° 39.8° - - -
3/29 3:20am 238 1 G 3 42° 91% - - 40° 46.4° 40.5° - - -
3/29 3:10am 295 1 G 2 41° 90% - - 39° 46.4° 40.5° - - -
3/29 3:00am 7 1 G 3 42° 90% - - 39° 46.4° 40.5° - - -
3/29 2:50am 159 1 G 2 42° 89% - - 39° 46.4° 40.5° - - -
3/29 2:40am 298 1 G 3 43° 91% - - 40° 46.4° 40.5° - - -
3/29 2:30am 16 2 G 4 42° 87% - - 38° 46.4° 40.5° - - -
3/29 2:20am 193 2 G 6 43° 88% - - 40° 46.4° 41.4° - - -
3/29 2:10am 92 2 G 5 44° 88% - - 40° 46.4° 41.4° - - -
3/29 2:00am 155 2 G 3 44° 88% - - 41° 46.4° 41.4° - - -
3/29 1:50am 81 3 G 5 43° 87% - - 39° 46.4° 41.4° - - -
3/29 1:40am 294 2 G 6 43° 87% - - 40° 46.4° 42.8° - - -
3/29 1:30am 267 2 G 4 44° 86% - - 40° 46.4° 42.8° - - -
3/29 1:20am 116 3 G 5 44° 87% - - 41° 46.4° 42.8° - - -
3/29 1:10am 234 2 G 6 44° 87% - - 40° 46.4° 42.8° - - -
3/29 1:00am 346 2 G 4 44° 86% - - 40° 46.4° 42.9° - - -
3/29 12:50am 155 2 G 4 45° 85% - - 40° 46.4° 43.5° - - -
3/29 12:40am 92 1 G 4 45° 85% - - 40° 46.4° 43.5° - - -
3/29 12:30am 339 1 G 2 44° 85% - - 40° 46.4° 43.5° - - -
3/29 12:20am 262 1 G 4 45° 84% - - 40° 46.4° 43.6° - - -
3/29 12:10am 75 1 G 3 46° 84% - - 41° 46.4° 45.3° - - -
3/29 12:00am 94 1 G 2 45° 83% - - 40° 76.4° 37.1° - - -
3/28 11:50pm 224 1 G 2 46° 81% - - 40° 76.4° 37.1° - - -
3/28 11:40pm 235 1 G 1 46° 81% - - 40° 76.4° 37.1° - - -
3/28 11:30pm 218 1 G 2 46° 79% - - 40° 76.4° 37.1° - - -
3/28 11:20pm 248 3 G 2 48° 76% - - 41° 76.4° 37.1° - - -
3/28 11:10pm 91 1 G 5 48° 78% - - 41° 76.4° 37.1° - - -
3/28 11:00pm 132 1 G 4 47° 76% - - 40° 76.4° 37.1° - - -
3/28 10:50pm 268 1 G 3 49° 73% - - 40° 76.4° 37.1° - - -
3/28 10:40pm 252 1 G 2 49° 75% - - 41° 76.4° 37.1° - - -
3/28 10:30pm 303 0 G 2 48° 77% - - 41° 76.4° 37.1° - - -
3/28 10:20pm 150 0 G 2 49° 76% - - 42° 76.4° 37.1° - - -
3/28 10:10pm 57 1 G 2 50° 72% - - 42° 76.4° 37.1° - - -
3/28 10:00pm 117 0 G 3 50° 71% - - 41° 76.4° 37.1° - - -
3/28 9:50pm 267 0 G 1 50° 68% - - 40° 76.4° 37.1° - - -
3/28 9:40pm 283 0 G 1 51° 65% - - 40° 76.4° 37.1° - - -
3/28 9:30pm 319 1 G 2 52° 66% - - 41° 76.4° 37.1° - - -
3/28 9:20pm 245 2 G 3 52° 65% - - 41° 76.4° 37.1° - - -
3/28 9:10pm 160 1 G 5 52° 66% - - 41° 76.4° 37.1° - - -
3/28 9:00pm 113 1 G 2 53° 67% - - 42° 76.4° 37.1° - - -
3/28 8:50pm 172 1 G 2 54° 64% - - 42° 76.4° 37.1° - - -
3/28 8:40pm 119 1 G 3 55° 64% - - 43° 76.4° 37.1° - - -
3/28 8:30pm 121 1 G 2 55° 61% - - 42° 76.4° 37.1° - - -
3/28 8:20pm 153 1 G 3 56° 60% - - 42° 76.4° 37.1° - - -
3/28 8:10pm 51 1 G 3 57° 55% - - 41° 76.4° 37.1° - - -
3/28 8:00pm 222 1 G 2 58° 52% - - 41° 76.4° 37.1° - - -
3/28 7:50pm 279 1 G 3 59° 51% - - 41° 76.4° 37.1° - - -
3/28 7:40pm 342 2 G 4 61° 48% - - 41° 76.4° 37.1° - - -
3/28 7:30pm 64 2 G 4 62° 45% - - 40° 76.4° 37.1° - - -
3/28 7:20pm 188 1 G 4 63° 43% - - 40° 76.4° 37.1° - - -
3/28 7:10pm 301 1 G 3 63° 44% - - 41° 76.4° 37.1° - - -
3/28 7:00pm 228 1 G 3 64° 41% - - 40° 76.4° 37.1° - - -
3/28 6:50pm 258 2 G 4 66° 39% - - 40° 76.4° 37.1° - - -
3/28 6:40pm 306 2 G 5 67° 37% - - 40° 76.4° 37.1° - - -
3/28 6:30pm 311 2 G 3 69° 34% - - 39° 76.4° 37.1° - - -
3/28 6:20pm 252 3 G 6 69° 32% - - 38° 76.4° 37.1° - - -
3/28 6:10pm 239 5 G 8 69° 32% - - 38° 76.4° 37.1° - - -
3/28 6:00pm 239 6 G 10 69° 31% - - 37° 76.4° 37.1° - - -
3/28 5:50pm 251 7 G 10 69° 34% - - 39° 76.4° 37.1° - - -
3/28 5:40pm 252 8 G 12 69° 33% - - 39° 76.4° 37.1° - - -
3/28 5:30pm 246 10 G 12 70° 33% - - 39° 76.4° 37.1° - - -
3/28 5:20pm 251 10 G 15 70° 34% - - 40° 76.4° 37.1° - - -
3/28 5:10pm 259 10 G 14 70° 35% - - 42° 76.4° 37.1° - - -
3/28 5:00pm 259 9 G 15 71° 36% - - 42° 76.4° 37.1° - - -
3/28 4:50pm 264 10 G 14 71° 34% - - 41° 76.4° 37.1° - - -
3/28 4:40pm 267 11 G 16 72° 33% - - 41° 76.4° 37.1° - - -
3/28 4:30pm 265 10 G 15 72° 33% - - 41° 76.4° 37.1° - - -
3/28 4:20pm 266 10 G 14 73° 33% - - 43° 76.4° 37.1° - - -
3/28 4:10pm 258 9 G 16 73° 33% - - 43° 76.4° 37.1° - - -
3/28 4:00pm 255 8 G 13 74° 30% - - 41° 76.4° 37.1° - - -
3/28 3:50pm 244 9 G 12 75° 29% - - 40° 76.4° 37.1° - - -
3/28 3:40pm 230 10 G 13 74° 29% - - 40° 76.4° 37.1° - - -
3/28 3:30pm 247 9 G 15 75° 30% - - 42° 76.4° 37.1° - - -
3/28 3:20pm 240 9 G 13 75° 29% - - 41° 76.4° 37.1° - - -
3/28 3:10pm 218 8 G 15 75° 29% - - 41° 76.4° 37.1° - - -
3/28 3:00pm 237 9 G 13 75° 29% - - 40° 76.4° 37.1° - - -
3/28 2:50pm 254 7 G 14 75° 29% - - 41° 76.4° 37.1° - - -
3/28 2:40pm 238 7 G 14 75° 25% - - 37° 76.4° 37.1° - - -
3/28 2:30pm 267 7 G 13 75° 24% - - 35° 76.4° 37.1° - - -
3/28 2:20pm 263 7 G 12 75° 21% - - 33° 76.4° 37.1° - - -
3/28 2:10pm 249 4 G 14 75° 21% - - 33° 76.4° 37.1° - - -
3/28 2:00pm 240 4 G 9 74° 18% - - 29° 76.4° 37.1° - - -
3/28 1:50pm 241 4 G 11 74° 19% - - 29° 76.4° 37.1° - - -
3/28 1:40pm 234 4 G 13 75° 19% - - 30° 76.4° 37.1° - - -
3/28 1:30pm 279 3 G 10 74° 19% - - 30° 75.1° 37.1° - - -
3/28 1:20pm 356 4 G 8 73° 20% - - 30° 74.2° 37.1° - - -
3/28 1:10pm 7 4 G 11 73° 21% - - 31° 74.2° 37.1° - - -
3/28 1:00pm 266 4 G 8 73° 21% - - 30° 73.9° 37.1° - - -
3/28 12:50pm 244 5 G 9 72° 21% - - 30° 73° 37.1° - - -
3/28 12:40pm 6 4 G 11 72° 22% - - 31° 72.8° 37.1° - - -
3/28 12:30pm 252 4 G 10 71° 23% - - 32° 72.3° 37.1° - - -
3/28 12:20pm 283 4 G 8 71° 24% - - 32° 72.3° 37.1° - - -
3/28 12:10pm 329 3 G 9 71° 25% - - 33° 72.3° 37.1° - - -
3/28 12:00pm 211 3 G 7 71° 24% - - 33° 72.3° 37.1° - - -
3/28 11:50am 249 3 G 7 70° 28% - - 36° 71.6° 37.1° - - -
3/28 11:40am 278 2 G 8 69° 30% - - 37° 70.4° 37.1° - - -
3/28 11:30am 241 2 G 7 69° 31% - - 37° 70.4° 37.1° - - -
3/28 11:20am 341 3 G 7 68° 32% - - 37° 68.8° 37.1° - - -
3/28 11:10am 5 3 G 7 67° 32% - - 37° 68.5° 37.1° - - -
3/28 11:00am 37 3 G 6 67° 30% - - 35° 67.7° 37.1° - - -
3/28 10:50am 19 3 G 6 66° 36% - - 38° 67.4° 37.1° - - -
3/28 10:40am 6 4 G 8 65° 41% - - 41° 65.5° 37.1° - - -
3/28 10:30am 356 3 G 7 64° 44% - - 42° 65.2° 37.1° - - -
3/28 10:20am 27 2 G 6 64° 44% - - 42° 64.2° 37.1° - - -
3/28 10:10am 48 2 G 4 63° 46% - - 42° 64.1° 37.1° - - -
3/28 10:00am 300 1 G 4 62° 45% - - 40° 62.4° 37.1° - - -
3/28 9:50am 166 1 G 3 61° 49% - - 42° 62.1° 37.1° - - -
3/28 9:40am 123 1 G 3 60° 52% - - 42° 60.4° 37.1° - - -
3/28 9:30am 152 1 G 4 58° 55% - - 42° 59.5° 37.1° - - -
3/28 9:20am 126 1 G 4 56° 59% - - 42° 57.4° 37.1° - - -
3/28 9:10am 242 1 G 2 55° 63% - - 43° 56° 37.1° - - -
3/28 9:00am 59 1 G 2 54° 68% - - 44° 55.1° 37.1° - - -
3/28 8:50am 92 1 G 2 52° 73% - - 44° 52.9° 37.1° - - -
3/28 8:40am 192 1 G 2 50° 83% - - 45° 51.8° 37.1° - - -
3/28 8:30am 245 0 G 2 50° 82% - - 45° 50.8° 37.1° - - -
3/28 8:20am 152 0 G 2 49° 88% - - 45° 50.4° 37.1° - - -
3/28 8:10am 175 1 G 2 47° 94% - - 45° 47.7° 37.1° - - -
3/28 8:00am 151 1 G 3 44° 96% - - 43° 47.5° 37.1° - - -
3/28 7:50am 135 2 G 3 43° 96% - - 42° 47.5° 37.1° - - -
3/28 7:40am 75 1 G 3 41° 96% - - 41° 47.5° 37.1° - - -
3/28 7:30am 291 1 G 2 41° 96% - - 40° 47.5° 37.1° - - -
3/28 7:20am 223 2 G 3 40° 97% - - 39° 47.5° 37.1° - - -
3/28 7:10am 12 1 G 4 39° 97% - - 38° 47.5° 37.1° - - -
3/28 7:00am 107 1 G 3 39° 96% - - 38° 47.5° 37.1° - - -
3/28 6:50am 260 2 G 3 39° 96% - - 38° 47.5° 37.1° - - -
3/28 6:40am 186 1 G 3 39° 96% - - 38° 47.5° 37.5° - - -
3/28 6:30am 214 1 G 3 38° 96% - - 37° 47.5° 37.5° - - -
3/28 6:20am 18 2 G 2 39° 96% - - 38° 47.5° 38.3° - - -
3/28 6:10am 120 2 G 3 40° 96% - - 39° 47.5° 38.3° - - -
3/28 6:00am 119 1 G 3 39° 96% - - 38° 47.5° 38.3° - - -